Crown Of Scandinavia — OXRA6 — position and weather

sailwx.info

Track history (hours):
 
Tides and Currents Weather Stations Pressure Air Temp Water Temp Dewpoint Dewpoint Depression Visibility Wind Speed Wind Dir Waves Ship Positions

Crown Of Scandinavia

Last reported at 2017-Mar-23 17:34 UTC. Time now 2017-Mar-23 18:24 UTC.
Position N 56°09' E 012°30'.

Length 171 m; draft 6.3 m.

Type: Ship. MMSI: 219592000.

Date/timePositionNaut miles runAvg speedWind from/ knotsBaromVisibWave heightAir tempDewpointWater temp
2017-Mar-23 17:34N 56°09' E 012°30'1616.1
2017-Mar-23 16:34N 55°55' E 012°44'1413.6
2017-Mar-23 15:34N 55°42' E 012°36'0 0.1
2017-Mar-23 14:33N 55°42' E 012°36'0 0.0
2017-Mar-23 13:33N 55°42' E 012°36'0 0.0
2017-Mar-23 12:33N 55°42' E 012°36'0 0.0
2017-Mar-23 11:33N 55°42' E 012°36'0 0.0
2017-Mar-23 10:33N 55°42' E 012°36'0 0.0
2017-Mar-23 09:33N 55°42' E 012°36'1 0.5
2017-Mar-23 08:33N 55°42' E 012°37'1211.6
2017-Mar-23 07:33N 55°54' E 012°39'1414.0
2017-Mar-23 06:33N 56°07' E 012°31'1615.7
2017-Mar-23 05:33N 56°22' E 012°20'3515.9
2017-Mar-23 03:22N 56°55' E 012°03'2017.3
2017-Mar-23 02:12N 57°14' E 011°51'1117.3
2017-Mar-23 01:34N 57°23' E 011°40'1717.2
2017-Mar-23 00:33N 57°36' E 011°18'1817.3
2017-Mar-22 23:33N 57°52' E 011°05'1716.7
2017-Mar-22 22:33N 58°08' E 010°54'1716.6
2017-Mar-22 21:33N 58°23' E 010°43'1716.7
2017-Mar-22 20:33N 58°40' E 010°36'1716.7
2017-Mar-22 19:33N 58°56' E 010°36'1717.0
2017-Mar-22 18:33N 59°13' E 010°37'1717.4
2017-Mar-22 17:33N 59°31' E 010°35'1514.6
2017-Mar-22 16:34N 59°45' E 010°33'1110.7
2017-Mar-22 15:33N 59°54' E 010°45'0 0.0
2017-Mar-22 14:33N 59°54' E 010°45'0 0.0
2017-Mar-22 13:25N 59°54' E 010°45'0 0.0
2017-Mar-22 12:34N 59°54' E 010°45'0 0.0
2017-Mar-22 11:34N 59°54' E 010°45'0 0.0
2017-Mar-22 10:34N 59°54' E 010°45'0 0.0
2017-Mar-22 09:34N 59°54' E 010°45'0 0.2
2017-Mar-22 08:33N 59°54' E 010°44'1212.0
2017-Mar-22 07:33N 59°43' E 010°35'1413.7
2017-Mar-22 06:33N 59°29' E 010°35'1717.5
2017-Mar-22 05:33N 59°12' E 010°38'1817.8
2017-Mar-22 04:33N 58°54' E 010°41'1817.7
2017-Mar-22 03:33N 58°37' E 010°43'1817.9
2017-Mar-22 02:33N 58°19' E 010°45'1717.2
2017-Mar-22 01:32N 58°01' E 010°47'1615.8
2017-Mar-22 00:33N 57°46' E 010°54'1616.3
2017-Mar-21 23:33N 57°35' E 011°17'1616.4
2017-Mar-21 22:33N 57°21' E 011°31'7216.4
2017-Mar-21 18:11N 56°16' E 012°25'1016.1
2017-Mar-21 17:33N 56°07' E 012°34'1515.3
2017-Mar-21 16:33N 55°53' E 012°44'1211.6
2017-Mar-21 15:33N 55°42' E 012°36'0 0.0
2017-Mar-21 14:31N 55°42' E 012°36'0 0.0
2017-Mar-21 13:31N 55°42' E 012°36'0 0.0
2017-Mar-21 12:31N 55°42' E 012°36'0 0.0
2017-Mar-21 11:31N 55°42' E 012°36'0 0.0
2017-Mar-21 10:31N 55°42' E 012°36'0 0.0
2017-Mar-21 09:31N 55°42' E 012°36'0 0.2
2017-Mar-21 08:33N 55°42' E 012°36'1110.8
2017-Mar-21 07:34N 55°53' E 012°40'1514.8
2017-Mar-21 06:34N 56°07' E 012°32'7715.4
2017-Mar-21 01:34N 57°19' E 011°46'1616.2
2017-Mar-21 00:34N 57°34' E 011°32'1817.9
2017-Mar-20 23:33N 57°51' E 011°21'1818.0
2017-Mar-20 22:33N 58°08' E 011°10'1716.9
2017-Mar-20 21:34N 58°24' E 011°01'1616.5
2017-Mar-20 20:33N 58°39' E 010°48'1616.2
2017-Mar-20 19:34N 58°55' E 010°40'1616.3
2017-Mar-20 18:34N 59°11' E 010°38'1717.0
2017-Mar-20 17:34N 59°28' E 010°34'1414.3
2017-Mar-20 16:34N 59°42' E 010°35'1312.9
2017-Mar-20 15:34N 59°54' E 010°45'0 0.2
2017-Mar-20 14:33N 59°54' E 010°45'0 0.0
2017-Mar-20 13:33N 59°54' E 010°45'0 0.0
2017-Mar-20 12:33N 59°54' E 010°45'0 0.0
2017-Mar-20 11:33N 59°54' E 010°45'0 0.0
2017-Mar-20 10:30N 59°54' E 010°45'0 0.0
2017-Mar-20 09:33N 59°54' E 010°45'0 0.0
2017-Mar-20 08:33N 59°54' E 010°45'1212.1
2017-Mar-20 07:33N 59°43' E 010°35'1313.3
2017-Mar-20 06:34N 59°30' E 010°35'1515.2
2017-Mar-20 05:34N 59°15' E 010°38'1515.3
2017-Mar-20 04:34N 58°59' E 010°39'1515.0
2017-Mar-20 03:34N 58°44' E 010°41'1615.6
2017-Mar-20 02:34N 58°30' E 010°52'1616.4
2017-Mar-20 01:34N 58°14' E 011°00'1716.9
2017-Mar-20 00:31N 57°57' E 011°09'1616.5
2017-Mar-19 23:33N 57°42' E 011°19'1716.6
2017-Mar-19 22:34N 57°27' E 011°29'1716.7
2017-Mar-19 21:34N 57°11' E 011°39'6616.5
2017-Mar-19 17:34N 56°11' E 012°28'1716.9
2017-Mar-19 16:33N 55°56' E 012°44'1414.3
2017-Mar-19 15:33N 55°42' E 012°36'0 0.4
2017-Mar-19 14:31N 55°42' E 012°36'0 0.0
2017-Mar-19 13:31N 55°42' E 012°36'0 0.0
2017-Mar-19 12:31N 55°42' E 012°36'0 0.0
2017-Mar-19 11:31N 55°42' E 012°36'0 0.0
2017-Mar-19 10:31N 55°42' E 012°36'0 0.0
2017-Mar-19 09:31N 55°42' E 012°36'0 0.3
2017-Mar-19 08:31N 55°42' E 012°36'1111.9
2017-Mar-19 07:34N 55°54' E 012°39'1514.8
2017-Mar-19 06:33N 56°08' E 012°30'1816.1
2017-Mar-19 05:27N 56°24' E 012°19'1516.6
2017-Mar-19 04:34N 56°39' E 012°11'3416.2
2017-Mar-19 02:28N 57°11' E 011°53'1516.6
2017-Mar-19 01:33N 57°24' E 011°38'1716.7
2017-Mar-19 00:33N 57°37' E 011°19'1717.0
2017-Mar-18 23:33N 57°52' E 011°05'1716.6
2017-Mar-18 22:33N 58°07' E 010°54'1716.5
2017-Mar-18 21:33N 58°23' E 010°43'1716.6
2017-Mar-18 20:33N 58°39' E 010°36'1616.1
2017-Mar-18 19:33N 58°55' E 010°36'1716.6
2017-Mar-18 18:34N 59°12' E 010°38'1716.8
2017-Mar-18 17:34N 59°28' E 010°34'1413.8
2017-Mar-18 16:33N 59°42' E 010°35'1312.7
2017-Mar-18 15:33N 59°54' E 010°45'0 0.1
2017-Mar-18 14:32N 59°54' E 010°45'0 0.0
2017-Mar-18 13:32N 59°54' E 010°45'0 0.0
2017-Mar-18 12:32N 59°54' E 010°45'0 0.0
2017-Mar-18 11:32N 59°54' E 010°45'0 0.0
2017-Mar-18 10:32N 59°54' E 010°45'0 0.0
2017-Mar-18 09:32N 59°54' E 010°45'1 0.6
2017-Mar-18 08:33N 59°54' E 010°44'1212.4
2017-Mar-18 07:33N 59°42' E 010°36'1110.9
2017-Mar-18 06:33N 59°31' E 010°36'1616.5
2017-Mar-18 05:34N 59°15' E 010°38'1716.6
2017-Mar-18 04:34N 58°59' E 010°42'1817.5
2017-Mar-18 03:33N 58°41' E 010°47'1818.0
2017-Mar-18 02:33N 58°24' E 010°55'1817.5
2017-Mar-18 01:33N 58°07' E 011°04'1717.2
2017-Mar-18 00:33N 57°50' E 011°14'1716.9
2017-Mar-17 23:33N 57°35' E 011°25'1616.3
2017-Mar-17 22:33N 57°19' E 011°35'6916.3
2017-Mar-17 18:20N 56°16' E 012°24'1215.9
2017-Mar-17 17:33N 56°05' E 012°36'1414.2
2017-Mar-17 16:33N 55°52' E 012°45'1211.6
2017-Mar-17 15:34N 55°42' E 012°36'0 0.0
2017-Mar-17 14:31N 55°42' E 012°36'0 0.0
2017-Mar-17 13:31N 55°42' E 012°36'0 0.0
2017-Mar-17 12:31N 55°42' E 012°36'0 0.0
2017-Mar-17 11:31N 55°42' E 012°36'0 0.0
2017-Mar-17 10:31N 55°42' E 012°36'0 0.0
2017-Mar-17 09:31N 55°42' E 012°36'0 0.3
2017-Mar-17 08:33N 55°42' E 012°36'1111.2
2017-Mar-17 07:33N 55°53' E 012°40'1414.1
2017-Mar-17 06:33N 56°07' E 012°32'1615.9
2017-Mar-17 05:33N 56°22' E 012°21'5216.3
2017-Mar-17 02:21N 57°12' E 011°54'1417.7
2017-Mar-17 01:33N 57°24' E 011°42'1818.0
2017-Mar-17 00:33N 57°40' E 011°28'1918.4
2017-Mar-16 23:33N 57°58' E 011°16'1716.6
2017-Mar-16 22:33N 58°13' E 011°06'1615.7
2017-Mar-16 21:33N 58°28' E 010°55'1615.8
2017-Mar-16 20:33N 58°43' E 010°46'1514.9
2017-Mar-16 19:34N 58°58' E 010°42'1615.6
2017-Mar-16 18:34N 59°13' E 010°38'1615.9
2017-Mar-16 17:34N 59°29' E 010°34'1413.7
2017-Mar-16 16:33N 59°43' E 010°35'1212.3
2017-Mar-16 15:33N 59°54' E 010°45'0 0.1
2017-Mar-16 13:16N 59°54' E 010°45'0 0.0
2017-Mar-16 12:34N 59°54' E 010°45'0 0.0
2017-Mar-16 11:34N 59°54' E 010°45'0 0.0
2017-Mar-16 10:34N 59°54' E 010°45'0 0.0
2017-Mar-16 09:33N 59°54' E 010°45'0 0.4
2017-Mar-16 08:34N 59°54' E 010°44'1212.1
2017-Mar-16 07:33N 59°43' E 010°35'1413.8
2017-Mar-16 06:33N 59°29' E 010°35'1616.1
2017-Mar-16 05:33N 59°13' E 010°38'1716.7
2017-Mar-16 04:33N 58°56' E 010°41'1818.1
2017-Mar-16 03:33N 58°38' E 010°47'1918.5
2017-Mar-16 02:33N 58°20' E 010°52'1717.5
2017-Mar-16 01:33N 58°03' E 010°57'1717.1
2017-Mar-16 00:33N 57°46' E 011°03'1616.2
2017-Mar-15 23:33N 57°33' E 011°21'1716.7
2017-Mar-15 22:33N 57°18' E 011°35'1917.1
2017-Mar-15 21:28N 57°00' E 011°47'5115.8
2017-Mar-15 18:15N 56°14' E 012°26'1115.0
2017-Mar-15 17:33N 56°05' E 012°36'1413.9
2017-Mar-15 16:33N 55°52' E 012°45'1111.3
2017-Mar-15 15:34N 55°42' E 012°36'0 0.0
2017-Mar-15 14:33N 55°42' E 012°36'0 0.0
2017-Mar-15 13:33N 55°42' E 012°36'0 0.0
2017-Mar-15 12:33N 55°42' E 012°36'0 0.0
2017-Mar-15 11:33N 55°42' E 012°36'0 0.0
2017-Mar-15 10:33N 55°42' E 012°36'0 0.0
2017-Mar-15 09:33N 55°42' E 012°36'0 0.0
2017-Mar-15 08:33N 55°42' E 012°36'1110.9
2017-Mar-15 07:33N 55°53' E 012°40'1615.6
2017-Mar-15 06:33N 56°07' E 012°30'1716.0
2017-Mar-15 05:31N 56°23' E 012°20'5217.4
2017-Mar-15 02:31N 57°13' E 011°53'1717.8
2017-Mar-15 01:33N 57°28' E 011°37'1717.6
2017-Mar-15 00:34N 57°44' E 011°24'1716.4
2017-Mar-14 23:33N 57°59' E 011°10'1716.7
2017-Mar-14 22:33N 58°13' E 010°55'1716.6
2017-Mar-14 21:33N 58°27' E 010°39'1716.6
2017-Mar-14 20:33N 58°42' E 010°24'1414.2
2017-Mar-14 19:34N 58°56' E 010°26'1615.9
2017-Mar-14 18:34N 59°11' E 010°38'1716.8
2017-Mar-14 17:33N 59°28' E 010°34'1414.2
2017-Mar-14 16:34N 59°42' E 010°35'1313.0
2017-Mar-14 15:34N 59°54' E 010°44'0 0.5
2017-Mar-14 14:33N 59°54' E 010°45'0 0.0
2017-Mar-14 13:33N 59°54' E 010°45'0 0.0
2017-Mar-14 12:33N 59°54' E 010°45'0 0.0
2017-Mar-14 11:33N 59°54' E 010°45'0 0.0
2017-Mar-14 10:33N 59°54' E 010°45'0 0.0
2017-Mar-14 09:33N 59°54' E 010°45'0 0.2
2017-Mar-14 08:33N 59°54' E 010°45'1212.1
2017-Mar-14 07:33N 59°43' E 010°35'1413.8
2017-Mar-14 06:34N 59°29' E 010°35'1515.4
2017-Mar-14 05:34N 59°14' E 010°38'1616.4
2017-Mar-14 04:34N 58°57' E 010°37'1616.1
2017-Mar-14 03:34N 58°41' E 010°35'1615.9
2017-Mar-14 02:34N 58°26' E 010°41'1616.1
2017-Mar-14 01:32N 58°10' E 010°50'1616.3
2017-Mar-14 00:33N 57°55' E 010°60'1716.7
2017-Mar-13 23:33N 57°40' E 011°14'1716.7
2017-Mar-13 22:33N 57°26' E 011°29'1716.7
2017-Mar-13 21:33N 57°10' E 011°40'6616.5
2017-Mar-13 17:34N 56°10' E 012°30'  
Track history (hours):
 
Tides and Currents Weather Stations Pressure Air Temp Water Temp Dewpoint Dewpoint Depression Visibility Wind Speed Wind Dir Waves Ship Positions

Crown Of Scandinavia

Last reported at 2017-Mar-23 17:34 UTC. Time now 2017-Mar-23 18:24 UTC.
Position N 56°09' E 012°30'.

Length 171 m; draft 6.3 m.

Type: Ship. MMSI: 219592000.

Date/timePositionNaut miles runAvg speedWind from/ knotsBaromVisibWave heightAir tempDewpointWater temp
2017-Mar-23 17:34N 56°09' E 012°30'1616.1
2017-Mar-23 16:34N 55°55' E 012°44'1413.6
2017-Mar-23 15:34N 55°42' E 012°36'0 0.1
2017-Mar-23 14:33N 55°42' E 012°36'0 0.0
2017-Mar-23 13:33N 55°42' E 012°36'0 0.0
2017-Mar-23 12:33N 55°42' E 012°36'0 0.0
2017-Mar-23 11:33N 55°42' E 012°36'0 0.0
2017-Mar-23 10:33N 55°42' E 012°36'0 0.0
2017-Mar-23 09:33N 55°42' E 012°36'1 0.5
2017-Mar-23 08:33N 55°42' E 012°37'1211.6
2017-Mar-23 07:33N 55°54' E 012°39'1414.0
2017-Mar-23 06:33N 56°07' E 012°31'1615.7
2017-Mar-23 05:33N 56°22' E 012°20'3515.9
2017-Mar-23 03:22N 56°55' E 012°03'2017.3
2017-Mar-23 02:12N 57°14' E 011°51'1117.3
2017-Mar-23 01:34N 57°23' E 011°40'1717.2
2017-Mar-23 00:33N 57°36' E 011°18'1817.3
2017-Mar-22 23:33N 57°52' E 011°05'1716.7
2017-Mar-22 22:33N 58°08' E 010°54'1716.6
2017-Mar-22 21:33N 58°23' E 010°43'1716.7
2017-Mar-22 20:33N 58°40' E 010°36'1716.7
2017-Mar-22 19:33N 58°56' E 010°36'1717.0
2017-Mar-22 18:33N 59°13' E 010°37'1717.4
2017-Mar-22 17:33N 59°31' E 010°35'1514.6
2017-Mar-22 16:34N 59°45' E 010°33'1110.7
2017-Mar-22 15:33N 59°54' E 010°45'0 0.0
2017-Mar-22 14:33N 59°54' E 010°45'0 0.0
2017-Mar-22 13:25N 59°54' E 010°45'0 0.0
2017-Mar-22 12:34N 59°54' E 010°45'0 0.0
2017-Mar-22 11:34N 59°54' E 010°45'0 0.0
2017-Mar-22 10:34N 59°54' E 010°45'0 0.0
2017-Mar-22 09:34N 59°54' E 010°45'0 0.2
2017-Mar-22 08:33N 59°54' E 010°44'1212.0
2017-Mar-22 07:33N 59°43' E 010°35'1413.7
2017-Mar-22 06:33N 59°29' E 010°35'1717.5
2017-Mar-22 05:33N 59°12' E 010°38'1817.8
2017-Mar-22 04:33N 58°54' E 010°41'1817.7
2017-Mar-22 03:33N 58°37' E 010°43'1817.9
2017-Mar-22 02:33N 58°19' E 010°45'1717.2
2017-Mar-22 01:32N 58°01' E 010°47'1615.8
2017-Mar-22 00:33N 57°46' E 010°54'1616.3
2017-Mar-21 23:33N 57°35' E 011°17'1616.4
2017-Mar-21 22:33N 57°21' E 011°31'7216.4
2017-Mar-21 18:11N 56°16' E 012°25'1016.1
2017-Mar-21 17:33N 56°07' E 012°34'1515.3
2017-Mar-21 16:33N 55°53' E 012°44'1211.6
2017-Mar-21 15:33N 55°42' E 012°36'0 0.0
2017-Mar-21 14:31N 55°42' E 012°36'0 0.0
2017-Mar-21 13:31N 55°42' E 012°36'0 0.0
2017-Mar-21 12:31N 55°42' E 012°36'0 0.0
2017-Mar-21 11:31N 55°42' E 012°36'0 0.0
2017-Mar-21 10:31N 55°42' E 012°36'0 0.0
2017-Mar-21 09:31N 55°42' E 012°36'0 0.2
2017-Mar-21 08:33N 55°42' E 012°36'1110.8
2017-Mar-21 07:34N 55°53' E 012°40'1514.8
2017-Mar-21 06:34N 56°07' E 012°32'7715.4
2017-Mar-21 01:34N 57°19' E 011°46'1616.2
2017-Mar-21 00:34N 57°34' E 011°32'1817.9
2017-Mar-20 23:33N 57°51' E 011°21'1818.0
2017-Mar-20 22:33N 58°08' E 011°10'1716.9
2017-Mar-20 21:34N 58°24' E 011°01'1616.5
2017-Mar-20 20:33N 58°39' E 010°48'1616.2
2017-Mar-20 19:34N 58°55' E 010°40'1616.3
2017-Mar-20 18:34N 59°11' E 010°38'1717.0
2017-Mar-20 17:34N 59°28' E 010°34'1414.3
2017-Mar-20 16:34N 59°42' E 010°35'1312.9
2017-Mar-20 15:34N 59°54' E 010°45'0 0.2
2017-Mar-20 14:33N 59°54' E 010°45'0 0.0
2017-Mar-20 13:33N 59°54' E 010°45'0 0.0
2017-Mar-20 12:33N 59°54' E 010°45'0 0.0
2017-Mar-20 11:33N 59°54' E 010°45'0 0.0
2017-Mar-20 10:30N 59°54' E 010°45'0 0.0
2017-Mar-20 09:33N 59°54' E 010°45'0 0.0
2017-Mar-20 08:33N 59°54' E 010°45'1212.1
2017-Mar-20 07:33N 59°43' E 010°35'1313.3
2017-Mar-20 06:34N 59°30' E 010°35'1515.2
2017-Mar-20 05:34N 59°15' E 010°38'1515.3
2017-Mar-20 04:34N 58°59' E 010°39'1515.0
2017-Mar-20 03:34N 58°44' E 010°41'1615.6
2017-Mar-20 02:34N 58°30' E 010°52'1616.4
2017-Mar-20 01:34N 58°14' E 011°00'1716.9
2017-Mar-20 00:31N 57°57' E 011°09'1616.5
2017-Mar-19 23:33N 57°42' E 011°19'1716.6
2017-Mar-19 22:34N 57°27' E 011°29'1716.7
2017-Mar-19 21:34N 57°11' E 011°39'6616.5
2017-Mar-19 17:34N 56°11' E 012°28'1716.9
2017-Mar-19 16:33N 55°56' E 012°44'1414.3
2017-Mar-19 15:33N 55°42' E 012°36'0 0.4
2017-Mar-19 14:31N 55°42' E 012°36'0 0.0
2017-Mar-19 13:31N 55°42' E 012°36'0 0.0
2017-Mar-19 12:31N 55°42' E 012°36'0 0.0
2017-Mar-19 11:31N 55°42' E 012°36'0 0.0
2017-Mar-19 10:31N 55°42' E 012°36'0 0.0
2017-Mar-19 09:31N 55°42' E 012°36'0 0.3
2017-Mar-19 08:31N 55°42' E 012°36'1111.9
2017-Mar-19 07:34N 55°54' E 012°39'1514.8
2017-Mar-19 06:33N 56°08' E 012°30'1816.1
2017-Mar-19 05:27N 56°24' E 012°19'1516.6
2017-Mar-19 04:34N 56°39' E 012°11'3416.2
2017-Mar-19 02:28N 57°11' E 011°53'1516.6
2017-Mar-19 01:33N 57°24' E 011°38'1716.7
2017-Mar-19 00:33N 57°37' E 011°19'1717.0
2017-Mar-18 23:33N 57°52' E 011°05'1716.6
2017-Mar-18 22:33N 58°07' E 010°54'1716.5
2017-Mar-18 21:33N 58°23' E 010°43'1716.6
2017-Mar-18 20:33N 58°39' E 010°36'1616.1
2017-Mar-18 19:33N 58°55' E 010°36'1716.6
2017-Mar-18 18:34N 59°12' E 010°38'1716.8
2017-Mar-18 17:34N 59°28' E 010°34'1413.8
2017-Mar-18 16:33N 59°42' E 010°35'1312.7
2017-Mar-18 15:33N 59°54' E 010°45'0 0.1
2017-Mar-18 14:32N 59°54' E 010°45'0 0.0
2017-Mar-18 13:32N 59°54' E 010°45'0 0.0
2017-Mar-18 12:32N 59°54' E 010°45'0 0.0
2017-Mar-18 11:32N 59°54' E 010°45'0 0.0
2017-Mar-18 10:32N 59°54' E 010°45'0 0.0
2017-Mar-18 09:32N 59°54' E 010°45'1 0.6
2017-Mar-18 08:33N 59°54' E 010°44'1212.4
2017-Mar-18 07:33N 59°42' E 010°36'1110.9
2017-Mar-18 06:33N 59°31' E 010°36'1616.5
2017-Mar-18 05:34N 59°15' E 010°38'1716.6
2017-Mar-18 04:34N 58°59' E 010°42'1817.5
2017-Mar-18 03:33N 58°41' E 010°47'1818.0
2017-Mar-18 02:33N 58°24' E 010°55'1817.5
2017-Mar-18 01:33N 58°07' E 011°04'1717.2
2017-Mar-18 00:33N 57°50' E 011°14'1716.9
2017-Mar-17 23:33N 57°35' E 011°25'1616.3
2017-Mar-17 22:33N 57°19' E 011°35'6916.3
2017-Mar-17 18:20N 56°16' E 012°24'1215.9
2017-Mar-17 17:33N 56°05' E 012°36'1414.2
2017-Mar-17 16:33N 55°52' E 012°45'1211.6
2017-Mar-17 15:34N 55°42' E 012°36'0 0.0
2017-Mar-17 14:31N 55°42' E 012°36'0 0.0
2017-Mar-17 13:31N 55°42' E 012°36'0 0.0
2017-Mar-17 12:31N 55°42' E 012°36'0 0.0
2017-Mar-17 11:31N 55°42' E 012°36'0 0.0
2017-Mar-17 10:31N 55°42' E 012°36'0 0.0
2017-Mar-17 09:31N 55°42' E 012°36'0 0.3
2017-Mar-17 08:33N 55°42' E 012°36'1111.2
2017-Mar-17 07:33N 55°53' E 012°40'1414.1
2017-Mar-17 06:33N 56°07' E 012°32'1615.9
2017-Mar-17 05:33N 56°22' E 012°21'5216.3
2017-Mar-17 02:21N 57°12' E 011°54'1417.7
2017-Mar-17 01:33N 57°24' E 011°42'1818.0
2017-Mar-17 00:33N 57°40' E 011°28'1918.4
2017-Mar-16 23:33N 57°58' E 011°16'1716.6
2017-Mar-16 22:33N 58°13' E 011°06'1615.7
2017-Mar-16 21:33N 58°28' E 010°55'1615.8
2017-Mar-16 20:33N 58°43' E 010°46'1514.9
2017-Mar-16 19:34N 58°58' E 010°42'1615.6
2017-Mar-16 18:34N 59°13' E 010°38'1615.9
2017-Mar-16 17:34N 59°29' E 010°34'1413.7
2017-Mar-16 16:33N 59°43' E 010°35'1212.3
2017-Mar-16 15:33N 59°54' E 010°45'0 0.1
2017-Mar-16 13:16N 59°54' E 010°45'0 0.0
2017-Mar-16 12:34N 59°54' E 010°45'0 0.0
2017-Mar-16 11:34N 59°54' E 010°45'0 0.0
2017-Mar-16 10:34N 59°54' E 010°45'0 0.0
2017-Mar-16 09:33N 59°54' E 010°45'0 0.4
2017-Mar-16 08:34N 59°54' E 010°44'1212.1
2017-Mar-16 07:33N 59°43' E 010°35'1413.8
2017-Mar-16 06:33N 59°29' E 010°35'1616.1
2017-Mar-16 05:33N 59°13' E 010°38'1716.7
2017-Mar-16 04:33N 58°56' E 010°41'1818.1
2017-Mar-16 03:33N 58°38' E 010°47'1918.5
2017-Mar-16 02:33N 58°20' E 010°52'1717.5
2017-Mar-16 01:33N 58°03' E 010°57'1717.1
2017-Mar-16 00:33N 57°46' E 011°03'1616.2
2017-Mar-15 23:33N 57°33' E 011°21'1716.7
2017-Mar-15 22:33N 57°18' E 011°35'1917.1
2017-Mar-15 21:28N 57°00' E 011°47'5115.8
2017-Mar-15 18:15N 56°14' E 012°26'1115.0
2017-Mar-15 17:33N 56°05' E 012°36'1413.9
2017-Mar-15 16:33N 55°52' E 012°45'1111.3
2017-Mar-15 15:34N 55°42' E 012°36'0 0.0
2017-Mar-15 14:33N 55°42' E 012°36'0 0.0
2017-Mar-15 13:33N 55°42' E 012°36'0 0.0
2017-Mar-15 12:33N 55°42' E 012°36'0 0.0
2017-Mar-15 11:33N 55°42' E 012°36'0 0.0
2017-Mar-15 10:33N 55°42' E 012°36'0 0.0
2017-Mar-15 09:33N 55°42' E 012°36'0 0.0
2017-Mar-15 08:33N 55°42' E 012°36'1110.9
2017-Mar-15 07:33N 55°53' E 012°40'1615.6
2017-Mar-15 06:33N 56°07' E 012°30'1716.0
2017-Mar-15 05:31N 56°23' E 012°20'5217.4
2017-Mar-15 02:31N 57°13' E 011°53'1717.8
2017-Mar-15 01:33N 57°28' E 011°37'1717.6
2017-Mar-15 00:34N 57°44' E 011°24'1716.4
2017-Mar-14 23:33N 57°59' E 011°10'1716.7
2017-Mar-14 22:33N 58°13' E 010°55'1716.6
2017-Mar-14 21:33N 58°27' E 010°39'1716.6
2017-Mar-14 20:33N 58°42' E 010°24'1414.2
2017-Mar-14 19:34N 58°56' E 010°26'1615.9
2017-Mar-14 18:34N 59°11' E 010°38'1716.8
2017-Mar-14 17:33N 59°28' E 010°34'1414.2
2017-Mar-14 16:34N 59°42' E 010°35'1313.0
2017-Mar-14 15:34N 59°54' E 010°44'0 0.5
2017-Mar-14 14:33N 59°54' E 010°45'0 0.0
2017-Mar-14 13:33N 59°54' E 010°45'0 0.0
2017-Mar-14 12:33N 59°54' E 010°45'0 0.0
2017-Mar-14 11:33N 59°54' E 010°45'0 0.0
2017-Mar-14 10:33N 59°54' E 010°45'0 0.0
2017-Mar-14 09:33N 59°54' E 010°45'0 0.2
2017-Mar-14 08:33N 59°54' E 010°45'1212.1
2017-Mar-14 07:33N 59°43' E 010°35'1413.8
2017-Mar-14 06:34N 59°29' E 010°35'1515.4
2017-Mar-14 05:34N 59°14' E 010°38'1616.4
2017-Mar-14 04:34N 58°57' E 010°37'1616.1
2017-Mar-14 03:34N 58°41' E 010°35'1615.9
2017-Mar-14 02:34N 58°26' E 010°41'1616.1
2017-Mar-14 01:32N 58°10' E 010°50'1616.3
2017-Mar-14 00:33N 57°55' E 010°60'1716.7
2017-Mar-13 23:33N 57°40' E 011°14'1716.7
2017-Mar-13 22:33N 57°26' E 011°29'1716.7
2017-Mar-13 21:33N 57°10' E 011°40'6616.5
2017-Mar-13 17:34N 56°10' E 012°30'  

Dump ship's entire track history